Station info - [map view · info · telemetry · weather · raw · status · beacons · messages · bulletins · browse · moving · my account]
Callsign, ship name or locator: Clear       
It is possible to search using wildcards (*?) after a prefix. Example: OH*
APRS station OZ5FI-9 - show graphs
Map loading...
Mic-E message: En route
Location: 55°45.31' N 12°32.13' E - locator JO65GS41GF - show map - static map
1.6 miles Southeast bearing 131° from Kongens Lyngby, Lyngby-Tårbæk Kommune, Capital Region, Denmark [?]
1.8 miles East bearing 95° from Buddinge, Gladsakse Kommune, Capital Region, Denmark
5.6 miles North bearing 348° from Copenhagen, Københavns Kommune, Capital Region, Denmark
20.8 miles Northwest bearing 300° from Malmö (Malmoe), Malmö Kommun, Skåne, Sweden
Last position: 2015-01-17 09:40:18 CST (8d 35m ago)
2015-01-17 16:40:18 CET local time at Kongens Lyngby, Denmark [?]
Altitude: 36 ft
Course: 353°
Speed: 29 MPH
Device: Kenwood: TM-D700 (rig)
Last path: OZ5FI-9>UU4U31 via OZ4DIE-2*,OZ4DIA-2*,WIDE2*,qAR,DG0SD-10 (good)
Positions stored: 40337
Stations near current position of OZ5FI-9 - show more
callsign distance last heard - CST      callsign distance last heard - CST
OZ1DKT1.1 miles 205°2015-01-21 00:56:10 OZ1BFM2.0 miles 202°2015-01-04 12:36:28
OZ1BFM-92.0 miles 202°2015-01-04 12:32:28 OZ1BFM-72.0 miles 203°2015-01-05 10:23:00
OZ1DKT-72.0 miles 277°2015-01-25 10:11:36 OZ1DKT-42.0 miles 277°2015-01-25 10:07:23
OZ5DIQ-12.7 miles 350°2015-01-25 09:33:06 OZ4HZ-32.8 miles 169°2015-01-25 10:12:33
OZ1PJO-TR3.2 miles 327°2015-01-25 10:08:42 OZ1REO-B3.4 miles 235°2014-12-29 12:03:04
OZ1REO B3.4 miles 235°2014-12-29 12:02:54 OZ1IEZ-A3.5 miles 239°2015-01-25 01:28:39
OZ1CJX-93.6 miles 165°2015-01-25 10:14:03 OZ3ACH B3.7 miles 234°2015-01-25 10:12:16
OZ3ACH-B3.7 miles 234°2015-01-25 10:12:26 OZ3ACH3.7 miles 234°2015-01-22 12:57:23
OZ0KAR3.9 miles 247°2015-01-25 10:00:48 OZ3BB-93.9 miles 222°2015-01-25 10:15:08
OZ4DIE-23.9 miles 246°2015-01-25 10:15:16 OZ4HZ-14.1 miles 196°2015-01-25 03:22:43
Stations which heard OZ5FI-9 directly on radio –
callsign pkts first heard - CST last heard longest (tx => rx) longest at - CST
OZ4DIE-2 17 2015-01-17 08:41:59 2015-01-17 09:40:18 JO55TT > JO65FR 33.9 miles 100° 2015-01-17 08:44:03
OZ4HZ-3 1 2015-01-17 09:29:34 2015-01-17 09:29:34 JO65GS > JO65GR 2.8 miles 161° 2015-01-17 09:29:34
OZ5DIB-1 10 2015-01-17 08:39:56 2015-01-17 09:07:45 JO55SS > JO55XU 16.6 miles 71° 2015-01-17 08:47:15
OZ6FRS-3 19 2015-01-17 08:46:09 2015-01-17 09:24:22 JO55TS > JO65BT 20.1 miles 82° 2015-01-17 08:46:09
OZ4DIB-2 21 2015-01-17 08:44:04 2015-01-17 09:27:25 JO55TT > JO65BP 24.1 miles 120° 2015-01-17 08:44:04
OZ4DIJ-2 1 2015-01-17 09:25:23 2015-01-17 09:25:23 JO65FS > JO66BB 26.4 miles 329° 2015-01-17 09:25:23
OZ1IEP-4 9 2015-01-17 08:39:55 2015-01-17 09:19:09 JO65EQ > JO55XU 18.6 miles 303° 2015-01-17 09:19:09
OZ2REC-2 22 2015-01-11 06:04:34 2015-01-11 07:05:42 JO56DO > JO46VR 20.0 miles 294° 2015-01-11 06:25:06
OZ7HVO-2 1 2015-01-17 09:23:19 2015-01-17 09:23:19 JO65FR > JO65FQ 3.5 miles 180° 2015-01-17 09:23:19
OZ1BZJ-1 19 2015-01-17 08:55:28 2015-01-17 09:25:21 JO55UQ > JO65CQ 19.5 miles 89° 2015-01-17 08:55:28
OZ5DIQ-1 3 2015-01-17 09:01:37 2015-01-17 09:29:30 JO55WP > JO65GT 25.9 miles 67° 2015-01-17 09:01:37
OZ5DIN-1 2 2015-01-17 08:50:18 2015-01-17 08:54:27 JO55UQ > JO55NR 23.6 miles 279° 2015-01-17 08:54:27
OZ9DIG-1 7 2015-01-17 09:19:09 2015-01-17 09:30:31 JO65EQ > JO65GQ 6.7 miles 107° 2015-01-17 09:19:09
OZ5W-1 2 2015-01-17 08:45:04 2015-01-17 08:47:14 JO55ST > JO55UL 22.2 miles 170° 2015-01-17 08:45:04
OZ1AHV-1 1 2015-01-17 09:06:49 2015-01-17 09:06:49 JO65AP > JO55XL 9.4 miles 199° 2015-01-17 09:06:49
OZ6REC-1 17 2015-01-17 08:40:57 2015-01-17 09:09:48 JO65BP > JO55TP 19.5 miles 274° 2015-01-17 09:09:48

Only position packets which were originated by the station are shown here. The range statistics show some extra long hops, because some digipeaters do not correctly add themselves to the digipeater path. Please check the raw packets.
About this site
This page shows real-time information collected from the Automatic Position Reporting System Internet network (APRS-IS). APRS is used by amateur (ham) radio operators to transmit real-time position information, weather data, telemetry and messages over the radio. A vehicle equipped with a GPS receiver, a VHF transmitter or HF transceiver and a small computer device called a tracker transmits it's location, speed and course in a small data packet, which is then received by a nearby iGate receiving site which forwards the packet on the Internet. Systems connected to the Internet can send information on the APRS-IS without a radio transmitter, or collect and display information transmitted anywhere in the world.
User guide · FAQ · Blog · Discussion group · Linking to aprs.fi · AIS sites · Service status · Database statistics · Advertising on aprs.fi · Technical details · API · Change log · Planned changes · Credits and thanks · Terms Of Service